Main page
METAR-TAF:

METAR-TAF

Airports :

St. Gallen–Altenrhein Airport

St. Gallen, Switzerland

latitude: 47-29-06N, longitude: 009-33-43E, elevation: 398 m

Current weather observation

The report was made 11 minutes ago, at 00:50 UTC
Wind 2 kt from variable directions
Temperature 14°C
Humidity 77%
Pressure 1014 hPa
Visibility 10 km or more
no clouds below 1500 m and no cumulonimbus

METAR: LSZR 210050Z AUTO VRB02KT CAVOK 14/10 Q1014

Time: 03:01 (01:01 UTC)

Forecast

The report was made 10 hours and 36 minutes ago, at 14:25 UTC
Forecast valid from 20 at 15 UTC to 20 at 24 UTC
Wind 7 kt from the East/Southeast
Visibility 10 km or more
no clouds below 1500 m and no cumulonimbus
Probability 40% :
Temporary
from 20 at 15 UTC to 20 at 19 UTC
Few clouds at a height of 4000 ft, Towering cumulus.
Broken clouds at a height of 5000 ft
rain showers

TAF: LSZR 201425Z 2015/2024 11007KT CAVOK PROB40 TEMPO 2015/2019 SHRA FEW040TCU BKN050

Weather observations and forecasts of more than 4000 airports (METAR and TAF reports).

The available stations are represented by yellow and red dots on the map.

Hover mouse over dot to see the name of the station.

Then click to see weather observations and forecasts.

To change the map : click on the green buttons with a black cross to zoom in, on the green button with a dash to zoom out, or on the green arrows for adjacent maps.


METAR-TAF: